Renato Soares

Recruteur - Atlético Mineiro
3 Déc 2028
Dimanche
Processus

Personnalité

Adaptabilité (10) Ambition (1) Controverse (15) Loyauté (7) Pression (11) Professionnalisme (5) Sportivité (10) Tempérament (11)

Profil

Style d'entraînement Démocratique
Diplôme Continental B
Détermination 6
Gestion des joueurs 13
Motivation 8
Discipline 14
Satisfaction professionnelle
100%
Fatigue
0%
Rôle Recruteur
Salaire 70.8K p/s
Contrat 14.03.2030

Performance

Comportement Bon
Efficacité de l'entraînement
50%
Développement des joueurs
40%
Prévention des blessures
35%
Mise en place tactique
50%

Événements récents

A évalué un joueur maintenant
A participé à une réunion de recrutement maintenant
A participé à une réunion de recrutement maintenant
A évalué un joueur maintenant
A évalué un joueur 7j
A évalué un joueur 7j
A évalué un joueur 7j
A évalué un joueur 7j

Suivi en cours

224
Joueur Club Statut Capacité Confiance Observé Dernière observation Dernier vote
Jeremías Merlo Gimnasia La Plata Actif 127 / 119 40% 4 29.11.2028 -
Babis Kostoulas Oxford United Actif 164 / 148 40% 2 29.11.2028 -
Julio Enciso Aston Villa Actif 161 / 147 40% 1 29.11.2028 -
Theo Corbeanu Toronto FC Actif 134 / 131 40% 1 29.11.2028 -
Samu Aghehowa Udinese Actif 154 / 170 40% 3 28.11.2028 -
Toni Fruk Talleres Actif 131 / 131 40% 3 28.11.2028 -
Yousef Salech Cardiff City Actif 133 / 130 40% 3 27.11.2028 -
Gabriel Martinelli Arsenal Actif 156 / 172 40% 1 27.11.2028 -
Iñaki Larthirigoyen San Telmo Actif 116 / 126 40% 2 26.11.2028 -
Tobías Leiva Estudiantes Actif 122 / 109 40% 1 26.11.2028 -
Juan Cruz de los Santos Nacional Actif 124 / 130 40% 1 24.11.2028 -
Matías Arezo Penarol Actif 129 / 129 40% 1 24.11.2028 -
Daniel Barrea Godoy Cruz Actif 123 / 129 40% 4 23.11.2028 -
Luciano Cosentino Wanderers Actif 124 / 125 40% 2 22.11.2028 -
Dango Ouattara Middlesbrough Actif 154 / 150 40% 1 22.11.2028 -
Endrick Boca Juniors Actif 168 / 164 40% 7 21.11.2028 -
Wesley Al-Nassr Actif 122 / 141 40% 1 21.11.2028 -
Ignacio Maestro Puch Independiente Actif 122 / 128 40% 3 20.11.2028 -
John Kennedy Corinthians Actif 133 / 135 40% 3 20.11.2028 -
Lisandro Piñero Banfield Actif 133 / 128 40% 3 20.11.2028 -
Leandro Mamut Gimnasia La Plata Actif 124 / 125 40% 1 20.11.2028 -
Ignacio Perruzzi San Lorenzo Actif 130 / 139 40% 1 17.11.2028 -
Jonathan De Irastorza Independiente Actif 128 / 124 40% 1 17.11.2028 -
Franco Minerva Platense Actif 122 / 123 40% 1 15.11.2028 -
Thiago Brentford Actif 155 / 155 40% 2 14.11.2028 -
Alan Velasco Fortaleza Actif 129 / 135 40% 1 14.11.2028 -
Geovany Quenda Watford Actif 151 / 160 40% 2 12.11.2028 -
Facundo Farías Estudiantes Actif 138 / 135 40% 1 09.11.2028 -
Nicolas Jackson Aston Villa Actif 153 / 150 40% 2 08.11.2028 -
Souleymane Faye Sporting CP Actif 151 / 134 40% 2 08.11.2028 -
Tomás Porra Barracas Central Actif 118 / 125 40% 1 07.11.2028 -
Matteo Cancellieri Flamengo Actif 158 / 142 40% 2 05.11.2028 -
Gustavo Neves Bragantino Actif 124 / 136 40% 4 03.11.2028 -
Nicolás Barros Schelotto Gimnasia La Plata Actif 112 / 117 40% 3 31.10.2028 -
Jalen Blesa Oliveirense Actif 116 / 122 40% 1 31.10.2028 -
Brennan Johnson Southampton Actif 143 / 146 40% 1 28.10.2028 -
Juan Velázquez Belgrano Actif 117 / 129 40% 1 27.10.2028 -
Álvaro Montoro Botafogo Actif 131 / 135 40% 3 25.10.2028 -
Luis Ángel Díaz Independiente Rivadavia Actif 129 / 131 40% 1 25.10.2028 -
Luis Vázquez Mamelodi Sundowns Actif 140 / 128 40% 1 25.10.2028 -
Bruno Barticciotto Talleres Actif 132 / 138 40% 1 22.10.2028 -
Lucas Villalba Botafogo Actif 134 / 137 40% 1 22.10.2028 -
Breno Bidon Corinthians Actif 135 / 127 40% 1 20.10.2028 -
Facundo Gulli San Lorenzo Actif 117 / 121 40% 2 16.10.2028 -
Matthew Grimaldi Melbourne Victory Actif 110 / 114 40% 1 16.10.2028 -
Lucca São Paulo Actif 113 / 112 40% 2 15.10.2028 -
Luka Tsulukidze Dinamo Batumi Actif 120 / 114 40% 1 15.10.2028 -
Alex Luna Instituto Actif 133 / 134 40% 1 10.10.2028 -
Agustín Giay Palmeiras Actif 141 / 141 40% 4 09.10.2028 -
Matías Rosales Sarmiento Actif 109 / 115 40% 1 09.10.2028 -
Alex Badolato Newcastle Jets Actif 105 / 113 40% 1 08.10.2028 -
Max Johnston Derby County Actif 131 / 148 40% 1 26.06.2028 -
Chemsdine Talbi Sunderland Actif 161 / 143 40% 1 26.06.2028 -
Mohamed-Ali Cho Hull City Actif 137 / 136 40% 1 21.06.2028 -
Tammy Abraham Aston Villa Actif 160 / 150 40% 2 01.06.2028 -
Charles De Ketelaere Tottenham Actif 176 / 163 40% 1 01.06.2028 -
Timothy Castagne Stoke City Actif 144 / 138 40% 3 28.05.2028 -
James Justin Leeds United Actif 152 / 131 40% 1 28.05.2028 -
Jan Paul van Hecke Tottenham Actif 158 / 153 40% 3 27.05.2028 -
André Wolverhampton Actif 138 / 151 40% 3 25.05.2028 -
Manu Koné AS Roma Actif 178 / 176 40% 1 25.05.2028 -
Alex Scott Bournemouth Actif 142 / 162 40% 4 24.05.2028 -
Jacques Ekomié Wrexham Actif 128 / 123 40% 1 24.05.2028 -
Shea Charles Southampton Actif 157 / 144 40% 2 23.05.2028 -
Jayden Bogle Leeds United Actif 156 / 156 40% 1 23.05.2028 -
Angeliño AS Roma Actif 155 / 143 40% 5 22.05.2028 -
Yasin Ayari Middlesbrough Actif 153 / 153 40% 1 22.05.2028 -
Pedro Porro Tottenham Actif 162 / 149 40% 3 21.05.2028 -
Neco Williams Wrexham Actif 139 / 156 40% 2 18.05.2028 -
Joe Rodon Blackburn Rovers Actif 137 / 139 40% 1 18.05.2028 -
Max Bird Birmingham Actif 131 / 138 40% 5 11.05.2028 -
Welington Southampton Actif 131 / 148 40% 1 11.05.2028 -
Óscar Mingueza Crystal Palace Actif 168 / 148 40% 2 05.05.2028 -
Vitaly Janelt Derby County Actif 163 / 140 40% 1 05.05.2028 -
Matteo Ruggeri Middlesbrough Actif 143 / 148 40% 3 04.05.2028 -
Sven Botman Newcastle United Actif 170 / 155 40% 1 30.04.2028 -
Maximiliano Araújo West Ham United Actif 149 / 143 40% 3 23.04.2028 -
Xaver Schlager Nottingham Forest Actif 156 / 143 40% 1 22.04.2028 -
Tino Livramento Newcastle United Actif 153 / 175 40% 2 20.04.2028 -
Bobby Thomas Grimsby Town Actif 135 / 151 40% 1 18.04.2028 -
Matheus Bidu Corinthians Actif 135 / 118 40% 3 13.04.2028 -
Adam Wharton Crystal Palace Actif 168 / 161 40% 1 12.04.2028 -
Alexandro Bernabei Internacional Actif 134 / 135 40% 3 11.04.2028 -
Boubacar Kamara Aston Villa Actif 157 / 178 40% 1 10.04.2028 -
Vitinho Botafogo Actif 135 / 145 40% 3 08.04.2028 -
Renato Sanches Leiria Actif 123 / 122 40% 1 08.04.2028 -
Luciano Juba Bahia Actif 141 / 123 40% 3 04.04.2028 -
Enzo Díaz Sport Recife Actif 124 / 123 40% 3 02.04.2028 -
Caio Alexandre Bahia Actif 126 / 132 40% 2 22.03.2028 -
Nordi Mukiele Sunderland Actif 163 / 143 40% 3 20.03.2028 -
Kenny Tete Fulham Actif 153 / 158 40% 3 19.03.2028 -
Bruno Gomes Internacional Actif 135 / 141 40% 1 15.03.2028 -
Souffian El Karouani Al-Qadisiyah Actif 137 / 145 40% 2 10.03.2028 -
Lucas Paquetá Flamengo Actif 139 / 132 40% 1 09.03.2028 -
Amadou Onana Aston Villa Actif 148 / 165 40% 1 03.03.2028 -
Moisés Caicedo Chelsea Actif 188 / 181 40% 2 28.02.2028 -
Lucas Piton Vasco da Gama Actif 148 / 129 40% 2 27.02.2028 -
Paulo Henrique Vasco da Gama Actif 140 / 123 40% 1 18.02.2028 -
Matheus Pereira Fortaleza Actif 125 / 129 40% 1 18.02.2028 -
Damián Bobadilla Sport Recife Actif 132 / 130 40% 1 08.02.2028 -
Sandro Tonali Tottenham Actif 172 / 181 40% 1 08.02.2028 -
Marcos Antonio Sport Recife Actif 133 / 149 40% 1 10.01.2028 -
Samuel Lino Flamengo Actif 133 / 144 58% 1 27.12.2027 -
Lucca Prior Fortaleza Actif 99 / 102 58% 1 20.12.2027 -
Rodrigo Garro Corinthians Actif 129 / 133 58% 1 28.06.2027 -
Aidan Morris Middlesbrough Actif 124 / 140 40% 1 21.06.2027 -
Lorenzo Colombo Genoa Actif 143 / 131 40% 3 29.05.2027 -
Heorhii Yermakov Metalist Actif 135 / 123 40% 1 29.05.2027 -
Elia Caprile Cagliari Actif 145 / 148 40% 2 23.05.2027 -
Giacomo Raspadori Atalanta Actif 135 / 153 40% 3 23.05.2027 -
Ivor Pandur Hull City Actif 137 / 127 40% 1 23.05.2027 -
Tyrese Campbell Sheffield United Actif 141 / 126 40% 3 21.05.2027 -
Sławomir Abramowicz Jagiellonia Actif 141 / 134 40% 3 21.05.2027 -
Mads Hermansen West Ham United Actif 136 / 154 40% 2 21.05.2027 -
Jørgen Strand Larsen Brighton Actif 143 / 156 40% 1 21.05.2027 -
Dominic Solanke Tottenham Actif 137 / 153 40% 3 20.05.2027 -
Fábio Carvalho Brentford Actif 139 / 153 40% 1 20.05.2027 -
Taty Castellanos West Ham United Actif 135 / 153 40% 1 18.05.2027 -
Sam Greenwood Bristol City Actif 130 / 132 40% 1 15.05.2027 -
Georginio Rutter Brighton Actif 160 / 145 40% 1 15.05.2027 -
Emanuel Emegha Chelsea Actif 138 / 152 40% 2 13.05.2027 -
Jarrod Bowen West Ham United Actif 148 / 148 40% 1 12.05.2027 -
Kevin Schade Chelsea Actif 154 / 163 40% 1 10.05.2027 -
Joseph Leclercq Tottenham Actif 157 / 158 40% 1 06.05.2027 -
Anthony Patterson Wrexham Actif 136 / 119 40% 5 03.05.2027 -
Robin Roefs Sunderland Actif 152 / 141 40% 3 01.05.2027 -
Radek Vítek Middlesbrough Actif 149 / 145 40% 3 01.05.2027 -
Gianluca Scamacca Atalanta Actif 143 / 150 40% 5 28.04.2027 -
Deniz Ertaş Konyaspor Actif 130 / 117 40% 1 24.04.2027 -
Víctor Guzmán Sporting CP Actif 93 / 94 40% 1 22.04.2027 -
Ismaïla Sarr Crystal Palace Actif 154 / 161 40% 1 20.04.2027 -
Rodrigo Muniz Fulham Actif 137 / 138 40% 2 18.04.2027 -
Wilson Isidor Sunderland Actif 144 / 142 40% 1 18.04.2027 -
Andreas Jungdal Westerlo Actif 123 / 117 40% 1 09.04.2027 -
Bertuğ Yıldırım Basaksehir Actif 135 / 129 40% 1 09.04.2027 -
Oh Hyeon-Gyu Besiktas Actif 114 / 126 40% 1 09.04.2027 -
Josh Keeley Luton Town Actif 130 / 115 40% 2 06.04.2027 -
Mauro Silveira Junior Actif 126 / 123 40% 1 05.04.2027 -
Nicolò Tresoldi Club Brugge Actif 145 / 131 40% 2 04.04.2027 -
Lucas Lund Viborg Actif 115 / 120 40% 1 04.04.2027 -
Hwang Hee-Chan Wolverhampton Actif 148 / 133 40% 1 03.04.2027 -
Rocco Vata Watford Actif 117 / 118 40% 1 01.04.2027 -
Ibrahim Saeed Al Shabab Actif 125 / 126 40% 2 31.03.2027 -
Justo Giani Umraniyespor Actif 131 / 113 40% 3 30.03.2027 -
Zion Suzuki Aston Villa Actif 141 / 133 40% 3 27.03.2027 -
Raúl Rangel Braga Actif 151 / 124 40% 1 26.03.2027 -
Ricardo Horta Braga Actif 143 / 152 40% 8 23.03.2027 -
Dodi Lukébakio Benfica Actif 142 / 143 40% 3 21.03.2027 -
Mateo Pellegrino Fiorentina Actif 146 / 141 40% 1 20.03.2027 -
Brian Brobbey Sunderland Actif 129 / 140 40% 3 18.03.2027 -
Fran Vieites Walsall Actif 134 / 132 40% 2 17.03.2027 -
Yanis Begraoui Estoril Praia Actif 135 / 137 40% 8 14.03.2027 -
Pau Víctor Braga Actif 153 / 145 40% 4 12.03.2027 -
Ollie Watkins Al-Hilal Actif 148 / 139 40% 3 10.03.2027 -
Gabriel Brazão Santos Actif 146 / 145 40% 2 07.03.2027 -
Oli McBurnie Hull City Actif 149 / 145 40% 2 26.02.2027 -
Alfonso Trezza Arouca Actif 138 / 116 40% 3 25.02.2027 -
Ivo Mammini Beitar Jerusalem Actif 126 / 126 40% 1 25.02.2027 -
José Manuel López Palmeiras Actif 143 / 127 40% 3 22.02.2027 -
Bilal Bayazıt Kayserispor Actif 136 / 138 40% 2 21.02.2027 -
Cezary Miszta Rio Ave Actif 132 / 126 40% 1 18.02.2027 -
Lazar Carević Famalicao Actif 144 / 134 40% 1 11.02.2027 -
Juan Diego Castillo Vitoria Guimaraes Actif 108 / 106 40% 1 08.02.2027 -
Antonio Gomis Vizela Actif 105 / 114 40% 1 07.02.2027 -
Tamble Monteiro Rio Ave Actif 114 / 117 40% 4 02.02.2027 -
Miguel Falé Pacos de Ferreira Actif 102 / 102 40% 1 02.02.2027 -
Lucas Duarte Felgueiras Actif 118 / 113 40% 1 01.02.2027 -
Wesley Saïd RC Lens Actif 147 / 124 40% 1 01.02.2027 -
Guilherme Neiva AVS Actif 94 / 109 40% 1 30.01.2027 -
Memphis Depay Corinthians Actif 141 / 138 40% 1 20.01.2027 Plus d'infos
Henrique Araújo Casa Pia Actif 117 / 122 40% 3 18.01.2027 -
Dwight McNeil Crystal Palace Actif 137 / 125 40% 2 14.01.2027 -
Nicolò Zaniolo Udinese Actif 129 / 133 40% 3 12.01.2027 -
Sorriso Famalicao Actif 126 / 136 40% 5 10.01.2027 -
Pedro Flamengo Actif 138 / 144 40% 3 08.01.2027 -
Yassin Fortuné Vizela Actif 102 / 105 40% 2 07.01.2027 -
Figueiredo Alverca Actif 121 / 125 40% 2 30.12.2026 -
Francisco Moura Porto Actif 152 / 138 40% 2 28.12.2026 -
Víctor Gómez Braga Actif 149 / 137 40% 3 28.12.2026 -
Edu Expósito Espanyol Actif 147 / 134 40% 1 26.12.2026 -
Iván Fresneda Sporting CP Actif 147 / 137 40% 2 23.12.2026 -
Eduardo Quaresma Sporting CP Actif 130 / 130 40% 2 23.12.2026 -
Ilyas Ansah Hull City Actif 131 / 147 40% 1 06.12.2026 -
Enzo Barrenechea Benfica Actif 155 / 161 40% 4 26.11.2026 -
Ayase Ueda LOSC Lille Actif 143 / 135 40% 1 23.11.2026 -
Leo Ceara Kashima Antlers Actif 141 / 131 40% 1 22.11.2026 -
Azor Matusiwa Ipswich Town Actif 135 / 131 40% 1 20.11.2026 -
Gustavo Silva Vitoria Guimaraes Actif 121 / 130 40% 2 13.11.2026 -
Andrea Pinamonti Lazio Actif 151 / 152 40% 3 09.11.2026 -
Eddie Nketiah Crystal Palace Actif 124 / 123 40% 2 09.11.2026 -
Martín Tejón Maritimo Actif 129 / 116 40% 1 03.11.2026 -
Vinícius Lopes Santa Clara Actif 113 / 106 40% 1 01.11.2026 -
Leandro Barreiro Benfica Actif 143 / 132 40% 2 29.10.2026 -
Bright Arrey-Mbi Braga Actif 127 / 130 40% 3 27.10.2026 -
Guilherme Arana Fluminense Actif 124 / 141 40% 1 23.10.2026 -
Hidemasa Morita Hull City Actif 134 / 154 40% 1 23.10.2026 -
Dylan Nandín Arouca Actif 119 / 103 40% 1 21.10.2026 -
Esteban Lepaul Stade Rennais Actif 123 / 142 40% 3 20.10.2026 -
Vitor Carvalho Braga Actif 148 / 129 40% 1 17.10.2026 -
Leon Goretzka Aston Villa Actif 165 / 154 40% 1 17.10.2026 -
Mathys Tel Tottenham Actif 145 / 144 40% 1 15.10.2026 -
Nehuén Pérez Porto Actif 125 / 129 40% 1 12.10.2026 -
Zeno Debast Sporting CP Actif 145 / 155 40% 1 12.10.2026 -
Alberto Costa Porto Actif 145 / 143 40% 3 03.10.2026 -
Kasper Dolberg Ajax Actif 122 / 123 40% 1 03.10.2026 -
Lisandro Martínez Ajax Actif 153 / 152 40% 1 02.10.2026 -
Donyell Malen AS Roma Actif 157 / 151 40% 1 29.09.2026 -
Alexey Miranchuk Atlanta United FC Actif 141 / 137 40% 1 29.09.2026 -
Igor Paixão Olympique de Marseille Actif 157 / 148 40% 2 24.09.2026 -
Petar Musa FC Dallas Actif 156 / 130 40% 1 24.09.2026 -
Erik Lira Cruz Azul Actif 142 / 145 40% 1 23.09.2026 -
Roberto Fernández Braga Actif 126 / 131 40% 2 21.09.2026 -
Steven Bergwijn Al-Ittihad Actif 132 / 152 40% 1 20.09.2026 -
Alexis Vega Feyenoord Actif 131 / 142 40% 1 20.09.2026 -
Jan Bednarek Porto Actif 127 / 134 40% 2 15.09.2026 -
Danilo Botafogo Actif 141 / 133 40% 1 13.09.2026 -
Sikou Niakaté Braga Actif 124 / 139 40% 2 10.09.2026 -
Joshua Zirkzee Manchester United Actif 132 / 132 40% 1 31.08.2026 -
Guus Til PSV Actif 138 / 146 40% 1 27.08.2026 -
Noah Okafor Leeds United Actif 138 / 150 40% 1 23.08.2026 -
Tomás Araújo Benfica Actif 128 / 156 40% 2 13.08.2026 -
Marc Cucurella Real Madrid Actif 165 / 140 40% 1 09.08.2026 -
Jonathan Dubasin Osasuna Actif 152 / 154 40% 1 08.08.2026 -
Leo Román Deportivo La Coruña Actif 127 / 134 40% 1 03.08.2026 -